Time;durP1;ratioP1;P1;durP2;ratioP2;P2;SDS_P1;SDS_P2;PMS_P1;PMS_P2;Temp;Humidity;BMP_temperature;BMP_pressure;BME280_temperature;BME280_humidity;BME280_pressure;Samples;Min_cycle;Max_cycle;Signal;HPM_P1;HPM_P2
2022/10/21 00:00:20;;;;;;;25.97;14.97;;;;;;;20.58;100.00;100633.88;4995583;28;20042;-53
2022/10/21 00:02:45;;;;;;;27.95;16.20;;;;;;;20.15;100.00;100634.81;5001671;28;20043;-51
2022/10/21 00:05:11;;;;;;;24.30;15.18;;;;;;;20.30;100.00;100649.53;4998065;28;20038;-51
2022/10/21 00:07:36;;;;;;;32.67;15.50;;;;;;;20.03;100.00;100669.47;5001927;28;20024;-51
2022/10/21 00:10:04;;;;;;;331.42;31.40;;;;;;;19.76;100.00;100683.94;5002340;28;20050;-52
2022/10/21 00:12:29;;;;;;;6.70;1.43;;;;;;;30.21;100.00;100745.22;4998445;28;20042;-52
2022/10/21 00:14:55;;;;;;;50.53;8.50;;;;;;;30.14;100.00;100724.47;5000929;28;20359;-56
2022/10/21 00:17:21;;;;;;;106.80;24.83;;;;;;;27.84;100.00;100654.09;5007146;28;20047;-53
2022/10/21 00:19:46;;;;;;;72.25;28.27;;;;;;;27.46;100.00;100641.63;5005983;28;20125;-53
2022/10/21 00:22:12;;;;;;;41.95;19.77;;;;;;;29.09;100.00;100644.91;4997538;28;20046;-54
2022/10/21 00:24:37;;;;;;;50.97;25.43;;;;;;;27.76;100.00;100633.69;4997667;28;20042;-52
2022/10/21 00:27:02;;;;;;;54.77;21.07;;;;;;;27.16;100.00;100641.28;4998716;28;20080;-56
2022/10/21 00:29:29;;;;;;;41.28;20.75;;;;;;;27.08;100.00;100641.22;5023728;28;20027;-57
2022/10/21 00:31:55;;;;;;;44.70;22.40;;;;;;;27.04;100.00;100639.13;4999771;28;20039;-53
2022/10/21 00:34:20;;;;;;;46.67;20.10;;;;;;;27.76;100.00;100643.88;4999088;28;20041;-56
2022/10/21 00:36:46;;;;;;;47.97;21.90;;;;;;;26.81;100.00;100634.72;5007877;28;20046;-50
2022/10/21 00:39:11;;;;;;;42.80;22.37;;;;;;;26.58;100.00;100634.69;5003228;28;20034;-53
2022/10/21 00:41:37;;;;;;;45.97;23.27;;;;;;;26.58;100.00;100627.25;5006478;28;20030;-56
2022/10/21 00:44:07;;;;;;;53.95;26.42;;;;;;;26.49;100.00;100624.44;4999887;28;20277;-54
2022/10/21 00:46:39;;;;;;;48.67;23.23;;;;;;;26.14;100.00;100624.09;4995823;28;20261;-53
2022/10/21 00:49:11;;;;;;;61.27;27.07;;;;;;;26.69;100.00;100605.91;5025578;28;20265;-56
2022/10/21 00:51:37;;;;;;;44.90;22.23;;;;;;;26.97;100.00;100597.56;4998455;28;20347;-56
2022/10/21 00:54:04;;;;;;;46.22;22.48;;;;;;;27.40;100.00;100603.63;5006225;28;20299;-56
2022/10/21 00:56:33;;;;;;;41.63;21.30;;;;;;;27.82;100.00;100601.41;5003155;28;20058;-54
2022/10/21 00:59:00;;;;;;;46.47;21.53;;;;;;;27.74;100.00;100604.94;5007078;28;20351;-53
2022/10/21 01:01:25;;;;;;;37.60;20.00;;;;;;;27.53;100.00;100605.50;4999953;28;20279;-53
2022/10/21 01:03:51;;;;;;;43.65;21.50;;;;;;;27.31;100.00;100601.66;5004994;28;20330;-54
2022/10/21 01:06:20;;;;;;;40.40;19.33;;;;;;;27.51;100.00;100599.50;5001665;28;21813;-53
2022/10/21 01:08:46;;;;;;;48.07;20.77;;;;;;;27.88;100.00;100605.59;4998488;28;20056;-52
2022/10/21 01:11:18;;;;;;;43.77;21.13;;;;;;;27.76;100.00;100602.69;4999725;28;20272;-56
2022/10/21 01:14:02;;;;;;;37.53;18.93;;;;;;;28.45;100.00;100609.47;4998944;28;20267;-54
2022/10/21 01:16:50;;;;;;;56.63;29.53;;;;;;;26.44;100.00;100599.88;5004094;28;20286;-52
2022/10/21 01:19:34;;;;;;;42.83;20.73;;;;;;;26.41;100.00;100592.28;5001346;28;20288;-49
2022/10/21 01:22:21;;;;;;;41.47;20.80;;;;;;;26.17;100.00;100576.91;4997613;28;20275;-52
2022/10/21 01:25:25;;;;;;;43.90;20.93;;;;;;;25.73;100.00;100586.56;5000046;28;20355;-52
2022/10/21 01:28:16;;;;;;;46.80;20.90;;;;;;;25.62;100.00;100575.84;5008849;28;20282;-54
2022/10/21 01:30:48;;;;;;;43.80;21.83;;;;;;;25.46;100.00;100569.00;5003504;28;20282;-53
2022/10/21 01:33:26;;;;;;;48.30;22.20;;;;;;;24.99;100.00;100571.75;5002397;28;20277;-52
2022/10/21 01:36:04;;;;;;;54.07;21.37;;;;;;;23.66;100.00;100576.00;5001872;28;20276;-50
2022/10/21 01:38:42;;;;;;;49.03;22.90;;;;;;;23.88;100.00;100565.38;5010993;28;20300;-49
2022/10/21 01:41:10;;;;;;;45.63;21.60;;;;;;;24.87;100.00;100555.81;4997332;28;20268;-54
2022/10/21 01:43:38;;;;;;;49.90;21.97;;;;;;;24.99;100.00;100558.88;5003209;28;20280;-53
2022/10/21 01:46:34;;;;;;;52.13;23.77;;;;;;;25.30;100.00;100558.34;5003554;28;20265;-55
2022/10/21 01:49:06;;;;;;;46.70;20.97;;;;;;;24.64;100.00;100547.41;4999786;28;20275;-55
2022/10/21 01:51:35;;;;;;;48.30;22.27;;;;;;;26.86;100.00;100555.06;5002295;28;20287;-52
2022/10/21 01:54:24;;;;;;;47.60;22.30;;;;;;;26.58;100.00;100552.44;5005867;28;20265;-53
2022/10/21 01:56:52;;;;;;;48.37;22.77;;;;;;;28.05;100.00;100554.56;5012497;28;20280;-49
2022/10/21 01:59:19;;;;;;;47.20;20.80;;;;;;;27.82;100.00;100551.94;5002047;28;20304;-50
2022/10/21 02:01:46;;;;;;;44.47;22.13;;;;;;;28.00;100.00;100551.97;4998719;28;20273;-51
2022/10/21 02:04:14;;;;;;;42.10;20.83;;;;;;;28.55;100.00;100549.75;5008117;28;20288;-50
2022/10/21 02:06:40;;;;;;;52.37;22.67;;;;;;;29.05;97.58;100546.44;5000310;28;20275;-50
2022/10/21 02:09:06;;;;;;;41.80;19.60;;;;;;;27.52;100.00;100537.16;5020289;28;20276;-52
2022/10/21 02:11:36;;;;;;;43.23;19.87;;;;;;;26.32;100.00;100528.38;5005382;28;20065;-52
2022/10/21 02:14:21;;;;;;;56.87;21.20;;;;;;;26.97;100.00;100531.72;5000407;28;20035;-54
2022/10/21 02:16:48;;;;;;;48.90;20.13;;;;;;;26.31;100.00;100515.78;5001724;28;20284;-50
2022/10/21 02:19:15;;;;;;;47.00;21.60;;;;;;;24.84;100.00;100509.91;4999209;28;20281;-54
2022/10/21 02:21:44;;;;;;;39.07;20.50;;;;;;;25.23;100.00;100507.84;4997665;28;20281;-53
2022/10/21 02:24:33;;;;;;;39.70;20.33;;;;;;;26.42;100.00;100517.16;5008385;28;20278;-53
2022/10/21 02:26:59;;;;;;;47.77;21.23;;;;;;;25.98;100.00;100510.47;4991190;28;20283;-50
2022/10/21 02:29:28;;;;;;;46.33;19.98;;;;;;;25.68;100.00;100501.81;4999536;28;20270;-52
2022/10/21 02:31:58;;;;;;;44.40;20.60;;;;;;;26.09;100.00;100494.59;5004094;28;20086;-51
2022/10/21 02:34:53;;;;;;;35.97;20.00;;;;;;;25.94;100.00;100495.75;5002875;28;20273;-49
2022/10/21 02:37:40;;;;;;;46.77;20.37;;;;;;;27.02;100.00;100500.59;5010407;28;20340;-50
2022/10/21 02:40:16;;;;;;;42.03;20.97;;;;;;;26.81;100.00;100498.38;4996967;28;20284;-49
2022/10/21 02:42:59;;;;;;;43.37;21.33;;;;;;;26.15;100.00;100502.41;5002610;28;20290;-51
2022/10/21 02:45:26;;;;;;;45.67;20.43;;;;;;;26.01;100.00;100504.38;5006908;28;20265;-50
2022/10/21 02:47:52;;;;;;;43.23;21.30;;;;;;;26.08;100.00;100503.94;4998435;28;20295;-49
2022/10/21 02:50:17;;;;;;;47.95;21.08;;;;;;;26.01;100.00;100494.22;4998740;28;20288;-49
2022/10/21 02:52:43;;;;;;;48.70;19.83;;;;;;;25.88;100.00;100492.31;5007939;28;20108;-53
2022/10/21 02:55:08;;;;;;;42.00;19.25;;;;;;;25.67;100.00;100486.50;5005319;28;20042;-54
2022/10/21 02:57:34;;;;;;;45.65;21.25;;;;;;;26.15;100.00;100499.66;5014673;28;20064;-52
2022/10/21 02:59:59;;;;;;;44.28;21.05;;;;;;;25.60;100.00;100489.63;5002947;28;20064;-52
2022/10/21 03:02:25;;;;;;;50.65;20.17;;;;;;;26.10;100.00;100494.31;5004937;28;20030;-52
2022/10/21 03:04:50;;;;;;;48.70;21.00;;;;;;;26.80;100.00;100506.91;4996983;28;20069;-55
2022/10/21 03:07:16;;;;;;;46.40;20.77;;;;;;;27.42;100.00;100506.09;4999277;28;20069;-51
2022/10/21 03:09:41;;;;;;;40.50;20.75;;;;;;;26.60;100.00;100501.63;4998019;28;20026;-52
2022/10/21 03:12:07;;;;;;;42.45;20.85;;;;;;;26.36;100.00;100498.38;5001937;28;20114;-54
2022/10/21 03:14:32;;;;;;;45.77;20.63;;;;;;;26.14;100.00;100508.19;5006267;28;20040;-50
2022/10/21 03:16:58;;;;;;;45.53;19.92;;;;;;;26.42;100.00;100502.66;5005761;28;20115;-53
2022/10/21 03:19:23;;;;;;;45.40;21.08;;;;;;;26.15;100.00;100504.31;4997988;28;20061;-52
2022/10/21 03:21:49;;;;;;;38.50;19.27;;;;;;;26.22;100.00;100496.53;5007491;28;20034;-50
2022/10/21 03:24:14;;;;;;;43.33;19.98;;;;;;;25.82;100.00;100497.09;5010634;28;20057;-50
2022/10/21 03:26:40;;;;;;;39.95;20.73;;;;;;;25.71;100.00;100492.97;5006490;28;20038;-49
2022/10/21 03:29:05;;;;;;;40.70;19.80;;;;;;;25.79;100.00;100492.22;5004688;28;20026;-52
2022/10/21 03:31:31;;;;;;;39.83;20.08;;;;;;;26.46;100.00;100488.00;5003285;28;20110;-52
2022/10/21 03:33:56;;;;;;;33.97;18.48;;;;;;;27.23;100.00;100491.81;4995498;28;20045;-50
2022/10/21 03:36:22;;;;;;;45.97;20.77;;;;;;;27.27;100.00;100487.31;5006099;28;20041;-55
2022/10/21 03:38:47;;;;;;;39.17;18.17;;;;;;;27.04;100.00;100484.63;5008051;28;20111;-53
2022/10/21 03:41:13;;;;;;;43.25;20.52;;;;;;;25.76;100.00;100476.41;5007697;28;20034;-53
2022/10/21 03:43:38;;;;;;;39.83;19.98;;;;;;;24.31;100.00;100479.84;5012170;28;20034;-52
2022/10/21 03:46:04;;;;;;;39.47;18.40;;;;;;;23.99;100.00;100467.75;4998939;28;20038;-54
2022/10/21 03:48:29;;;;;;;43.53;20.80;;;;;;;23.57;100.00;100472.13;4996848;28;20026;-51
2022/10/21 03:50:55;;;;;;;38.72;19.13;;;;;;;23.27;100.00;100464.00;5002364;28;20054;-52
2022/10/21 03:53:22;;;;;;;36.97;19.77;;;;;;;23.52;100.00;100464.00;4997754;28;20038;-54
2022/10/21 03:55:49;;;;;;;38.53;19.10;;;;;;;22.67;100.00;100467.06;5018989;28;20057;-52
2022/10/21 03:58:15;;;;;;;41.77;20.07;;;;;;;22.94;100.00;100468.44;5007379;28;20051;-52
2022/10/21 04:00:40;;;;;;;45.63;21.70;;;;;;;23.31;100.00;100458.78;4995109;28;20276;-51
2022/10/21 04:03:05;;;;;;;37.05;19.52;;;;;;;23.15;100.00;100450.75;5001291;28;20102;-54
2022/10/21 04:05:31;;;;;;;34.47;18.42;;;;;;;23.11;100.00;100446.97;4999738;28;20046;-49
2022/10/21 04:07:56;;;;;;;44.37;19.20;;;;;;;23.42;100.00;100462.22;5005002;28;20041;-53
2022/10/21 04:10:22;;;;;;;43.45;19.50;;;;;;;23.58;100.00;100466.38;5003360;28;20038;-52
2022/10/21 04:12:48;;;;;;;45.00;19.17;;;;;;;23.19;100.00;100465.47;5001974;28;20107;-54
2022/10/21 04:15:13;;;;;;;42.65;18.33;;;;;;;23.30;100.00;100463.47;4992849;28;20347;-48
2022/10/21 04:17:39;;;;;;;43.40;18.25;;;;;;;23.04;100.00;100471.88;4995854;28;20060;-52
2022/10/21 04:20:05;;;;;;;49.10;19.00;;;;;;;23.27;100.00;100464.00;4994280;28;20102;-52
2022/10/21 04:22:31;;;;;;;31.80;16.95;;;;;;;24.13;100.00;100472.50;4997565;28;20034;-49
2022/10/21 04:24:56;;;;;;;43.47;18.70;;;;;;;23.39;100.00;100466.31;5000491;28;20058;-49
2022/10/21 04:27:22;;;;;;;43.58;17.95;;;;;;;24.38;100.00;100474.00;4994401;28;20110;-51
2022/10/21 04:29:48;;;;;;;35.90;17.35;;;;;;;24.74;100.00;100473.44;5014046;28;20022;-51
2022/10/21 04:32:13;;;;;;;31.17;15.80;;;;;;;24.87;100.00;100476.50;5001045;28;20035;-50
2022/10/21 04:34:38;;;;;;;39.17;15.73;;;;;;;25.69;100.00;100478.78;5001906;28;20058;-49
2022/10/21 04:37:04;;;;;;;41.40;16.30;;;;;;;25.32;100.00;100478.69;5023269;28;20069;-49
2022/10/21 04:39:29;;;;;;;37.13;16.73;;;;;;;25.85;100.00;100482.00;5011864;28;20037;-51
2022/10/21 04:41:55;;;;;;;30.23;15.98;;;;;;;26.06;100.00;100474.94;5014273;28;20057;-54
2022/10/21 04:44:21;;;;;;;36.53;15.52;;;;;;;25.33;100.00;100475.63;5002534;28;20034;-51
2022/10/21 04:46:47;;;;;;;35.28;16.63;;;;;;;24.66;100.00;100468.63;4999061;28;20031;-54
2022/10/21 04:49:13;;;;;;;30.45;15.40;;;;;;;26.10;100.00;100486.09;4996764;28;20065;-51
2022/10/21 04:51:38;;;;;;;31.42;15.60;;;;;;;26.21;100.00;100492.16;5001913;28;20059;-56
2022/10/21 04:54:03;;;;;;;37.07;15.53;;;;;;;26.31;100.00;100482.91;5003582;28;20049;-55
2022/10/21 04:56:29;;;;;;;28.50;15.07;;;;;;;26.09;100.00;100484.47;5007901;28;20061;-53
2022/10/21 04:58:54;;;;;;;31.17;16.33;;;;;;;24.34;100.00;100470.25;5004091;28;20356;-55
2022/10/21 05:01:20;;;;;;;26.67;14.27;;;;;;;25.06;100.00;100479.97;4995661;28;20272;-54
2022/10/21 05:03:45;;;;;;;26.58;14.68;;;;;;;25.78;100.00;100485.13;5005300;28;20039;-50
2022/10/21 05:06:11;;;;;;;31.73;13.73;;;;;;;25.74;100.00;100484.13;5007932;28;20068;-52
2022/10/21 05:08:36;;;;;;;33.23;13.73;;;;;;;25.83;100.00;100485.03;5001632;28;20272;-52
2022/10/21 05:11:02;;;;;;;31.07;13.43;;;;;;;25.82;100.00;100480.66;5002734;28;20301;-51
2022/10/21 05:13:29;;;;;;;25.17;12.90;;;;;;;26.13;100.00;100479.16;5000713;28;20031;-56
2022/10/21 05:15:59;;;;;;;27.05;12.80;;;;;;;26.89;100.00;100483.13;5003859;28;20296;-53
2022/10/21 05:18:24;;;;;;;31.00;12.87;;;;;;;26.70;100.00;100484.09;4992656;28;20038;-56
2022/10/21 05:20:51;;;;;;;27.58;12.38;;;;;;;26.67;100.00;100487.47;5007432;28;20296;-54
2022/10/21 05:23:16;;;;;;;;;;;;;;;25.88;100.00;100484.94;5005878;28;20477;-52
2022/10/21 05:25:46;;;;;;;25.93;11.83;;;;;;;25.99;100.00;100479.22;5004501;28;19970;-53
2022/10/21 05:28:12;;;;;;;25.67;12.43;;;;;;;26.48;100.00;100484.94;5000133;28;20054;-51
2022/10/21 05:30:38;;;;;;;24.77;12.57;;;;;;;25.14;100.00;100488.59;5009115;28;20277;-52
2022/10/21 05:33:04;;;;;;;26.60;12.60;;;;;;;25.68;100.00;100488.09;4996730;28;20039;-51
2022/10/21 05:35:30;;;;;;;26.43;12.60;;;;;;;26.14;100.00;100489.00;5007123;28;20045;-53
2022/10/21 05:37:55;;;;;;;26.50;13.40;;;;;;;25.57;100.00;100487.50;4999191;28;20288;-53
2022/10/21 05:40:21;;;;;;;24.52;12.68;;;;;;;25.92;100.00;100480.44;5009934;28;20269;-55
2022/10/21 05:42:46;;;;;;;27.20;12.48;;;;;;;25.97;100.00;100478.72;5004883;28;20046;-56
2022/10/21 05:45:12;;;;;;;23.95;12.43;;;;;;;26.54;100.00;100472.72;5013434;28;20054;-55
2022/10/21 05:47:41;;;;;;;29.63;12.95;;;;;;;26.85;100.00;100471.16;5013067;28;20042;-57
2022/10/21 05:50:12;;;;;;;30.80;13.10;;;;;;;26.48;100.00;100463.81;5000632;28;20031;-57
2022/10/21 05:52:38;;;;;;;28.60;12.63;;;;;;;26.20;100.00;100460.41;5001087;28;20350;-62
2022/10/21 05:55:04;;;;;;;29.23;13.25;;;;;;;26.26;100.00;100459.16;5002440;28;20282;-61
2022/10/21 05:57:34;;;;;;;25.95;13.55;;;;;;;26.20;100.00;100452.19;5003701;28;20038;-58
2022/10/21 06:00:00;;;;;;;38.93;13.17;;;;;;;26.08;100.00;100452.72;5004422;28;20034;-59
2022/10/21 06:02:25;;;;;;;28.95;12.77;;;;;;;25.71;100.00;100449.16;5007516;28;20272;-58
2022/10/21 06:04:52;;;;;;;24.83;12.50;;;;;;;25.71;100.00;100444.47;5003978;28;20031;-59
2022/10/21 06:07:17;;;;;;;29.73;13.50;;;;;;;25.41;100.00;100449.47;5009800;28;20336;-57
2022/10/21 06:09:44;;;;;;;24.95;13.13;;;;;;;25.62;100.00;100441.69;5004639;28;20265;-57
2022/10/21 06:12:09;;;;;;;32.25;14.02;;;;;;;25.53;100.00;100446.25;4997182;28;20045;-58
2022/10/21 06:14:35;;;;;;;27.58;13.60;;;;;;;25.85;100.00;100451.84;5012457;28;20038;-59
2022/10/21 06:17:02;;;;;;;29.40;13.23;;;;;;;26.31;100.00;100447.28;4998503;28;20068;-59
2022/10/21 06:19:27;;;;;;;27.33;13.60;;;;;;;26.24;100.00;100452.34;5010469;28;20043;-60
2022/10/21 06:21:53;;;;;;;24.13;12.10;;;;;;;25.99;100.00;100455.38;4994988;28;20273;-58
2022/10/21 06:24:18;;;;;;;29.83;13.43;;;;;;;25.60;100.00;100448.56;5000818;28;20308;-59
2022/10/21 06:26:44;;;;;;;34.33;13.93;;;;;;;25.73;100.00;100445.00;5005900;28;20034;-55
2022/10/21 06:29:10;;;;;;;28.63;13.50;;;;;;;25.47;100.00;100447.47;5006127;28;20073;-59
2022/10/21 06:31:35;;;;;;;29.05;13.93;;;;;;;25.63;100.00;100451.50;5005198;28;20091;-58
2022/10/21 06:34:01;;;;;;;28.43;14.13;;;;;;;25.62;100.00;100449.06;4998045;28;20039;-59
2022/10/21 06:36:28;;;;;;;27.00;13.77;;;;;;;25.44;100.00;100445.31;5003474;28;20043;-60
2022/10/21 06:38:53;;;;;;;40.50;15.40;;;;;;;25.83;100.00;100446.69;5005760;28;20046;-56
2022/10/21 06:41:19;;;;;;;28.97;14.57;;;;;;;25.72;100.00;100445.31;4997601;28;20303;-57
2022/10/21 06:43:44;;;;;;;42.40;14.98;;;;;;;25.56;100.00;100456.56;4991887;28;20043;-57
2022/10/21 06:46:12;;;;;;;34.78;15.30;;;;;;;25.61;100.00;100463.88;5002349;28;20098;-61
2022/10/21 06:48:39;;;;;;;33.90;15.20;;;;;;;25.48;100.00;100466.31;5002415;28;20177;-61
2022/10/21 06:51:13;;;;;;;39.20;15.57;;;;;;;25.57;100.00;100463.66;5010027;28;20275;-62
2022/10/21 06:53:40;;;;;;;40.17;15.67;;;;;;;24.66;100.00;100459.63;4998920;28;20035;-60
2022/10/21 06:56:08;;;;;;;36.57;16.00;;;;;;;24.52;100.00;100465.06;5005394;28;20269;-60
2022/10/21 06:58:35;;;;;;;32.67;14.30;;;;;;;25.05;100.00;100466.63;5006202;28;20295;-59
2022/10/21 07:01:12;;;;;;;36.53;16.50;;;;;;;25.15;100.00;100469.13;5003653;28;20276;-59
2022/10/21 07:03:38;;;;;;;;;;;;;;;26.39;100.00;100473.91;5004383;28;20275;-58
2022/10/21 07:06:04;;;;;;;52.43;15.00;;;;;;;27.58;96.88;100484.50;5005406;28;19913;-60
2022/10/21 07:08:31;;;;;;;28.23;14.63;;;;;;;27.43;96.98;100479.44;4996613;28;20260;-61
2022/10/21 07:10:58;;;;;;;44.57;14.17;;;;;;;26.94;99.29;100474.75;5016703;28;20067;-60
2022/10/21 07:13:24;;;;;;;31.13;14.90;;;;;;;26.74;100.00;100476.88;5007862;28;20276;-58
2022/10/21 07:16:06;;;;;;;26.73;14.02;;;;;;;26.59;100.00;100480.81;4996378;28;20038;-57
2022/10/21 07:18:33;;;;;;;32.23;14.87;;;;;;;26.37;100.00;100495.34;5007429;28;20050;-60
2022/10/21 07:21:05;;;;;;;31.87;15.67;;;;;;;26.51;100.00;100497.19;5000951;28;20279;-56
2022/10/21 07:23:31;;;;;;;30.23;15.23;;;;;;;25.89;100.00;100502.97;5008703;28;20265;-60
2022/10/21 07:25:56;;;;;;;29.15;15.07;;;;;;;25.72;100.00;100502.81;5000701;28;20268;-58
2022/10/21 07:28:21;;;;;;;36.67;15.90;;;;;;;25.39;100.00;100508.38;4992187;28;20035;-58
2022/10/21 07:30:48;;;;;;;37.13;15.90;;;;;;;25.03;100.00;100516.13;4983580;28;20035;-56
2022/10/21 07:33:14;;;;;;;45.33;16.83;;;;;;;25.05;100.00;100513.91;4980053;28;20098;-58
2022/10/21 07:35:39;;;;;;;27.80;15.73;;;;;;;25.57;100.00;100514.88;4984108;28;20030;-58
2022/10/21 07:38:05;;;;;;;36.95;15.82;;;;;;;26.70;100.00;100530.72;4985863;28;20035;-58
2022/10/21 07:40:31;;;;;;;40.87;16.40;;;;;;;26.40;100.00;100530.34;4989238;28;20035;-61
2022/10/21 07:42:57;;;;;;;26.48;13.98;;;;;;;26.86;100.00;100530.38;4984714;28;20276;-59
2022/10/21 07:45:23;;;;;;;35.57;15.37;;;;;;;26.56;100.00;100530.00;4987041;28;20073;-58
2022/10/21 07:47:49;;;;;;;36.60;15.73;;;;;;;26.24;100.00;100529.09;4983759;28;20270;-56
2022/10/21 07:50:15;;;;;;;30.20;14.70;;;;;;;26.56;100.00;100524.53;4987627;28;20609;-56
2022/10/21 07:52:44;;;;;;;32.40;14.55;;;;;;;26.95;100.00;100531.22;4982713;28;20026;-54
2022/10/21 07:55:15;;;;;;;42.63;15.87;;;;;;;28.13;96.00;100534.50;4982423;28;20095;-56
2022/10/21 07:57:42;;;;;;;31.70;14.97;;;;;;;28.17;94.43;100529.22;4987432;28;20299;-60
2022/10/21 08:00:09;;;;;;;40.73;15.37;;;;;;;28.02;95.97;100545.00;4982389;28;20260;-61
2022/10/21 08:02:38;;;;;;;32.00;15.63;;;;;;;27.46;98.57;100537.28;4987270;28;20834;-59
2022/10/21 08:05:04;;;;;;;26.17;13.45;;;;;;;27.41;99.70;100536.59;4983572;28;20262;-58
2022/10/21 08:07:31;;;;;;;28.83;13.70;;;;;;;27.39;100.00;100533.38;4988295;28;20039;-55
2022/10/21 08:09:56;;;;;;;28.93;13.47;;;;;;;27.32;99.92;100539.31;4985415;28;20026;-55
2022/10/21 08:12:24;;;;;;;29.73;12.77;;;;;;;27.74;98.30;100539.81;4984912;28;20269;-60
2022/10/21 08:14:50;;;;;;;26.90;11.85;;;;;;;27.91;97.24;100539.03;4988952;28;20264;-56
2022/10/21 08:17:15;;;;;;;27.85;11.30;;;;;;;26.49;100.00;100525.75;4985546;28;20085;-58
2022/10/21 08:19:41;;;;;;;27.08;9.88;;;;;;;26.52;100.00;100527.06;4987193;28;20062;-57
2022/10/21 08:22:08;;;;;;;21.13;10.90;;;;;;;26.63;100.00;100527.63;4988100;28;20042;-57
2022/10/21 08:24:34;;;;;;;37.58;10.05;;;;;;;26.25;100.00;100525.22;4986775;28;20310;-58
2022/10/21 08:27:02;;;;;;;23.47;10.63;;;;;;;26.62;100.00;100521.31;4984434;28;20038;-58
2022/10/21 08:29:27;;;;;;;16.10;8.87;;;;;;;25.88;100.00;100519.72;4981123;28;20265;-57
2022/10/21 08:31:53;;;;;;;22.33;10.30;;;;;;;26.25;100.00;100517.00;4983681;28;20277;-59
2022/10/21 08:34:18;;;;;;;29.40;10.18;;;;;;;26.05;100.00;100505.38;4989453;28;20067;-59
2022/10/21 08:36:44;;;;;;;18.25;9.73;;;;;;;26.28;100.00;100508.16;4984839;28;20070;-55
2022/10/21 08:39:09;;;;;;;26.30;9.88;;;;;;;25.84;100.00;100505.84;4989007;28;20043;-60
2022/10/21 08:41:54;;;;;;;20.08;9.77;;;;;;;26.09;100.00;100500.09;4983411;28;20030;-59
2022/10/21 08:44:30;;;;;;;28.67;10.17;;;;;;;25.82;100.00;100508.06;4989346;28;20038;-57
2022/10/21 08:47:20;;;;;;;19.83;9.10;;;;;;;24.96;100.00;100510.25;4984132;28;20367;-57
2022/10/21 08:49:53;;;;;;;23.00;10.70;;;;;;;25.45;100.00;100501.69;4980097;28;20039;-57
2022/10/21 08:52:24;;;;;;;20.50;10.33;;;;;;;24.91;100.00;100499.38;4984131;28;20035;-56
2022/10/21 08:54:59;;;;;;;22.50;10.07;;;;;;;25.28;100.00;100500.34;4988052;28;20273;-59
2022/10/21 08:57:25;;;;;;;18.60;9.97;;;;;;;24.88;100.00;100491.78;5006158;28;20056;-58
2022/10/21 08:59:52;;;;;;;23.23;10.93;;;;;;;25.26;100.00;100491.66;5001909;28;20034;-57
2022/10/21 09:02:27;;;;;;;;;;;;;;;25.27;100.00;100506.94;5008149;28;20275;-58
2022/10/21 09:05:14;;;;;;;21.63;10.90;;;;;;;25.82;100.00;100508.06;5001097;28;19973;-60
2022/10/21 09:07:52;;;;;;;18.67;9.43;;;;;;;26.01;100.00;100526.28;4998888;28;20034;-59
2022/10/21 09:10:30;;;;;;;21.47;9.77;;;;;;;25.57;100.00;100528.56;4997773;28;21109;-59
2022/10/21 09:13:03;;;;;;;25.20;10.47;;;;;;;25.47;100.00;100540.53;5001617;28;20279;-59
2022/10/21 09:15:43;;;;;;;19.70;9.43;;;;;;;25.61;100.00;100535.88;4995122;28;20306;-62
2022/10/21 09:18:27;;;;;;;18.90;10.03;;;;;;;25.39;100.00;100543.97;5000578;28;20280;-59
2022/10/21 09:21:09;;;;;;;15.03;9.03;;;;;;;25.41;100.00;100547.22;5007701;28;20155;-55
2022/10/21 09:23:56;;;;;;;19.50;9.20;;;;;;;25.67;100.00;100552.19;4999502;28;20261;-56
2022/10/21 09:26:40;;;;;;;18.17;9.63;;;;;;;26.13;100.00;100545.75;5002654;28;20046;-56
2022/10/21 09:29:47;;;;;;;25.57;11.13;;;;;;;25.84;100.00;100541.44;5010532;28;20070;-56
2022/10/21 09:32:17;;;;;;;16.60;8.67;;;;;;;26.26;100.00;100555.06;5002969;28;20038;-60
2022/10/21 09:35:00;;;;;;;19.90;9.43;;;;;;;25.98;100.00;100554.28;5001746;28;20062;-57
2022/10/21 09:37:34;;;;;;;23.57;9.07;;;;;;;26.51;100.00;100550.13;4997470;28;20064;-60
2022/10/21 09:40:13;;;;;;;22.23;9.30;;;;;;;25.70;100.00;100546.91;5004050;28;20043;-58
2022/10/21 09:42:39;;;;;;;16.13;8.93;;;;;;;26.25;100.00;100545.25;4989761;28;20054;-59
2022/10/21 09:45:14;;;;;;;18.67;9.15;;;;;;;27.07;100.00;100549.06;4991042;28;20043;-54
2022/10/21 09:47:39;;;;;;;19.80;9.27;;;;;;;25.83;100.00;100555.44;4995669;28;20050;-56
2022/10/21 09:50:05;;;;;;;22.17;9.53;;;;;;;26.19;100.00;100554.69;4994011;28;20055;-59
2022/10/21 09:52:34;;;;;;;19.13;8.03;;;;;;;25.69;100.00;100539.00;4988368;28;20033;-56
2022/10/21 09:55:02;;;;;;;21.87;7.67;;;;;;;26.03;100.00;100533.09;4987178;28;20034;-58
2022/10/21 09:57:43;;;;;;;21.73;8.47;;;;;;;25.60;100.00;100541.66;4993259;28;20091;-58
2022/10/21 10:00:09;;;;;;;20.17;8.63;;;;;;;25.51;100.00;100530.59;4992012;28;20043;-57
2022/10/21 10:02:42;;;;;;;17.33;8.43;;;;;;;26.03;100.00;100527.59;4988588;28;20035;-58
2022/10/21 10:05:46;;;;;;;15.63;7.70;;;;;;;26.31;100.00;100524.81;4996717;28;20102;-59
2022/10/21 10:08:32;;;;;;;17.30;8.53;;;;;;;26.62;100.00;100540.50;5020498;28;20038;-59
2022/10/21 10:11:17;;;;;;;18.17;7.37;;;;;;;27.03;100.00;100533.22;4994468;28;20047;-55
2022/10/21 10:13:51;;;;;;;18.63;7.73;;;;;;;27.43;100.00;100539.84;4992883;28;20038;-57
2022/10/21 10:16:31;;;;;;;18.63;8.90;;;;;;;26.68;100.00;100538.47;4995623;28;20049;-56
2022/10/21 10:19:15;;;;;;;17.57;8.03;;;;;;;27.01;100.00;100545.63;4997035;28;20090;-56
2022/10/21 10:21:40;;;;;;;20.23;8.70;;;;;;;27.68;100.00;100543.84;4991738;28;20031;-57
2022/10/21 10:24:15;;;;;;;17.27;8.20;;;;;;;28.07;100.00;100555.06;4996066;28;20050;-55
2022/10/21 10:26:41;;;;;;;24.97;7.30;;;;;;;27.72;100.00;100546.75;4989652;28;20545;-57
2022/10/21 10:29:19;;;;;;;15.10;6.23;;;;;;;27.25;100.00;100550.75;4994780;28;20057;-60
2022/10/21 10:31:48;;;;;;;8.57;5.30;;;;;;;27.28;100.00;100544.63;4995693;28;20034;-58
2022/10/21 10:34:20;;;;;;;13.47;6.20;;;;;;;28.01;100.00;100553.59;4990080;28;20039;-56
2022/10/21 10:36:47;;;;;;;16.07;5.27;;;;;;;28.03;100.00;100556.81;4991056;28;20037;-57
2022/10/21 10:39:22;;;;;;;14.00;6.67;;;;;;;28.11;100.00;100552.47;4988255;28;20043;-62
2022/10/21 10:41:50;;;;;;;11.00;4.50;;;;;;;27.78;100.00;100545.47;4988860;28;20035;-59
2022/10/21 10:44:32;;;;;;;12.73;4.90;;;;;;;27.77;100.00;100552.09;4996321;28;20042;-58
2022/10/21 10:47:03;;;;;;;12.50;4.67;;;;;;;27.27;100.00;100548.50;4986534;28;20023;-58
2022/10/21 10:49:37;;;;;;;8.27;3.13;;;;;;;27.44;100.00;100547.75;4996938;28;20038;-59
2022/10/21 10:52:11;;;;;;;10.73;4.90;;;;;;;28.13;100.00;100551.00;5067705;28;20112;-59
2022/10/21 10:54:39;;;;;;;11.03;3.97;;;;;;;28.54;100.00;100557.22;5064414;28;20021;-59
2022/10/21 10:57:12;;;;;;;12.63;4.70;;;;;;;28.40;100.00;100557.38;5064870;28;20037;-56
2022/10/21 11:00:03;;;;;;;10.17;4.50;;;;;;;28.83;100.00;100557.66;5059932;28;20025;-58
2022/10/21 11:03:00;;;;;;;11.07;4.63;;;;;;;27.71;100.00;100562.41;5062789;28;20097;-58
2022/10/21 11:05:35;;;;;;;15.50;5.40;;;;;;;28.23;100.00;100554.63;5065074;28;20028;-55
2022/10/21 11:08:13;;;;;;;12.70;5.60;;;;;;;28.18;100.00;100556.41;5064866;28;20033;-54
2022/10/21 11:10:45;;;;;;;13.73;5.13;;;;;;;27.72;100.00;100569.53;5066658;28;20051;-59
2022/10/21 11:13:19;;;;;;;13.07;5.90;;;;;;;27.56;100.00;100563.66;5061262;28;20040;-57
2022/10/21 11:16:10;;;;;;;10.90;5.63;;;;;;;27.02;100.00;100553.56;5068209;28;20047;-58